createdAt,value
2022-12-04T00:04:29.297Z,14.07
2022-12-04T00:09:30.921Z,13.85
2022-12-04T00:14:32.635Z,13.27
2022-12-04T00:19:34.097Z,14.10
2022-12-04T00:24:35.641Z,13.68
2022-12-04T00:29:37.090Z,13.10
2022-12-04T00:34:38.577Z,14.27
2022-12-04T00:39:39.975Z,15.48
2022-12-04T00:44:41.483Z,15.10
2022-12-04T00:49:42.943Z,14.13
2022-12-04T00:54:44.427Z,13.13
2022-12-04T00:59:45.867Z,14.13
2022-12-04T01:04:47.617Z,13.77
2022-12-04T01:09:49.112Z,13.80
2022-12-04T01:14:50.543Z,13.88
2022-12-04T01:19:52.250Z,13.25
2022-12-04T01:24:56.930Z,15.18
2022-12-04T01:29:58.494Z,13.70
2022-12-04T01:34:59.913Z,14.02
2022-12-04T01:40:01.563Z,15.10
2022-12-04T01:45:24.808Z,15.60
2022-12-04T01:50:26.400Z,14.20
2022-12-04T01:55:28.008Z,12.77
2022-12-04T02:00:29.574Z,14.45
2022-12-04T02:05:31.030Z,14.15
2022-12-04T02:10:41.218Z,14.82
2022-12-04T02:15:55.506Z,13.50
2022-12-04T02:20:56.956Z,13.43
2022-12-04T02:26:36.178Z,13.93
2022-12-04T02:32:01.429Z,13.95
2022-12-04T02:37:14.401Z,13.10
2022-12-04T02:42:19.968Z,15.30
2022-12-04T02:47:24.119Z,14.45
2022-12-04T02:52:36.285Z,14.38
2022-12-04T02:57:44.104Z,14.80
2022-12-04T03:02:54.620Z,15.07
2022-12-04T03:13:09.003Z,12.35
2022-12-04T03:18:18.589Z,13.75
2022-12-04T03:23:30.183Z,13.03
2022-12-04T03:28:43.842Z,12.75
2022-12-04T03:33:47.713Z,11.68
2022-12-04T03:39:05.748Z,12.90
2022-12-04T03:44:39.545Z,12.18
2022-12-04T03:49:46.898Z,12.35
2022-12-04T03:55:01.983Z,13.05
2022-12-04T04:00:08.528Z,11.65
2022-12-04T04:05:12.847Z,13.07
2022-12-04T04:10:17.549Z,12.43
2022-12-04T04:15:38.816Z,12.38
2022-12-04T04:21:03.275Z,11.45
2022-12-04T04:26:07.262Z,11.52
2022-12-04T04:31:16.619Z,12.13
2022-12-04T04:36:31.453Z,10.95
2022-12-04T04:41:43.825Z,15.45
2022-12-04T04:46:52.570Z,10.63
2022-12-04T04:51:55.077Z,11.23
2022-12-04T04:56:56.692Z,10.00
2022-12-04T05:01:58.491Z,10.63
2022-12-04T05:06:59.966Z,12.05
2022-12-04T05:12:01.372Z,11.20
2022-12-04T05:17:12.136Z,11.90
2022-12-04T05:22:14.146Z,9.90
2022-12-04T05:27:15.631Z,10.35
2022-12-04T05:32:17.096Z,10.45
2022-12-04T05:37:19.109Z,11.10
2022-12-04T05:42:20.695Z,10.55
2022-12-04T05:47:22.123Z,10.75
2022-12-04T05:52:23.629Z,11.32
2022-12-04T05:57:25.675Z,11.50
2022-12-04T06:02:27.379Z,11.77
2022-12-04T06:07:28.914Z,9.73
2022-12-04T06:12:30.714Z,11.30
2022-12-04T06:17:32.164Z,11.80
2022-12-04T06:22:33.952Z,10.93
2022-12-04T06:27:35.625Z,10.68
2022-12-04T06:32:37.085Z,9.85
2022-12-04T06:37:38.560Z,11.38
2022-12-04T06:42:40.077Z,9.60
2022-12-04T06:47:41.660Z,10.60
2022-12-04T06:52:43.090Z,11.52
2022-12-04T06:57:44.521Z,12.15
2022-12-04T07:02:46.050Z,12.88
2022-12-04T07:07:47.546Z,10.15
2022-12-04T07:12:49.049Z,11.25
2022-12-04T07:17:50.520Z,12.00
2022-12-04T07:22:52.160Z,11.45
2022-12-04T07:27:53.623Z,12.45
2022-12-04T07:32:55.112Z,11.15
2022-12-04T07:37:56.598Z,11.30
2022-12-04T07:42:58.093Z,10.40
2022-12-04T07:47:59.569Z,11.70
2022-12-04T07:53:01.014Z,12.05
2022-12-04T07:58:02.518Z,10.77
2022-12-04T08:03:04.424Z,11.10
2022-12-04T08:08:06.167Z,11.32
2022-12-04T08:13:07.704Z,12.27
2022-12-04T08:18:09.202Z,11.02
2022-12-04T08:23:10.887Z,11.80
2022-12-04T08:28:12.457Z,11.35
2022-12-04T08:33:13.922Z,12.88
2022-12-04T08:38:15.495Z,11.15
2022-12-04T08:43:17.086Z,12.50
2022-12-04T08:48:18.580Z,12.18
2022-12-04T08:53:20.674Z,10.75
2022-12-04T08:58:22.601Z,11.82
2022-12-04T09:03:30.588Z,10.52
2022-12-04T09:08:33.595Z,10.68
2022-12-04T09:13:35.958Z,11.35
2022-12-04T09:18:38.524Z,12.50
2022-12-04T09:23:40.889Z,12.30
2022-12-04T09:28:42.457Z,11.40
2022-12-04T09:33:46.027Z,13.38
2022-12-04T09:38:50.382Z,13.48
2022-12-04T09:43:57.973Z,13.27
2022-12-04T09:49:04.091Z,12.93
2022-12-04T09:54:14.000Z,11.25
2022-12-04T09:59:22.317Z,12.52
2022-12-04T10:04:25.674Z,12.45
2022-12-04T10:09:45.443Z,12.32
2022-12-04T10:15:06.745Z,11.50
2022-12-04T10:20:08.247Z,13.75
2022-12-04T10:25:24.358Z,12.82
2022-12-04T10:30:32.439Z,13.20
2022-12-04T10:35:36.190Z,13.20
2022-12-04T10:40:44.237Z,14.75
2022-12-04T10:45:45.700Z,11.82
2022-12-04T10:50:47.221Z,13.43
2022-12-04T10:55:49.002Z,12.40
2022-12-04T11:01:02.895Z,13.13
2022-12-04T11:06:06.786Z,10.70
2022-12-04T11:11:12.535Z,11.07
2022-12-04T11:16:35.705Z,11.93
2022-12-04T11:21:38.607Z,13.07
2022-12-04T11:26:42.728Z,15.45
2022-12-04T11:31:49.649Z,10.82
2022-12-04T11:36:56.492Z,11.40
2022-12-04T11:42:16.577Z,12.07
2022-12-04T11:47:20.139Z,12.85
2022-12-04T11:52:49.648Z,14.25
2022-12-04T11:57:54.165Z,12.05
2022-12-04T12:03:15.237Z,13.93
2022-12-04T12:09:12.154Z,14.75
2022-12-04T12:14:28.384Z,13.93
2022-12-04T12:19:55.483Z,11.75
2022-12-04T12:25:12.037Z,11.68
2022-12-04T12:30:22.454Z,9.93
2022-12-04T12:35:26.875Z,12.82
2022-12-04T12:40:43.650Z,13.32
2022-12-04T12:45:56.960Z,13.50
2022-12-04T12:51:31.728Z,11.10
2022-12-04T12:56:47.798Z,12.13
2022-12-04T13:02:01.059Z,11.45
2022-12-04T13:07:17.752Z,11.88
2022-12-04T13:12:22.027Z,11.50
2022-12-04T13:17:33.922Z,10.27
2022-12-04T13:22:51.913Z,12.13
2022-12-04T13:27:56.460Z,12.48
2022-12-04T13:32:57.876Z,11.23
2022-12-04T13:38:05.638Z,10.48
2022-12-04T13:43:37.092Z,10.95
2022-12-04T13:48:41.244Z,10.63
2022-12-04T13:53:43.887Z,11.48
2022-12-04T13:58:45.312Z,13.70
2022-12-04T14:03:50.628Z,18.80
2022-12-04T14:09:05.270Z,19.90
2022-12-04T14:14:08.346Z,17.92
2022-12-04T14:19:27.422Z,15.85
2022-12-04T14:24:35.650Z,15.77
2022-12-04T14:29:51.094Z,14.63
2022-12-04T14:34:53.452Z,13.60
2022-12-04T14:39:56.938Z,11.18
2022-12-04T14:45:00.722Z,11.93
2022-12-04T14:50:20.808Z,11.10
2022-12-04T14:55:57.752Z,12.05
2022-12-04T15:01:02.180Z,11.73
2022-12-04T15:06:12.016Z,10.90
2022-12-04T15:11:39.916Z,15.63
2022-12-04T15:16:41.655Z,12.88
2022-12-04T15:21:43.310Z,15.32
2022-12-04T15:26:46.738Z,10.82
2022-12-04T15:31:56.738Z,11.05
2022-12-04T15:37:07.367Z,10.50
2022-12-04T15:42:24.131Z,12.80
2022-12-04T15:47:26.361Z,15.55
2022-12-04T15:52:27.804Z,15.25
2022-12-04T15:57:33.577Z,16.63
2022-12-04T16:02:39.953Z,17.15
2022-12-04T16:07:58.674Z,17.92
2022-12-04T16:13:02.766Z,18.33
2022-12-04T16:18:06.150Z,17.15
2022-12-04T16:23:07.573Z,16.55
2022-12-04T16:28:09.068Z,16.98
2022-12-04T16:33:14.827Z,19.27
2022-12-04T16:38:17.233Z,16.13
2022-12-04T16:43:18.757Z,15.18
2022-12-04T16:48:20.823Z,16.17
2022-12-04T16:53:22.772Z,19.27
2022-12-04T16:58:24.288Z,18.52
2022-12-04T17:03:29.310Z,17.88
2022-12-04T17:08:32.021Z,16.38
2022-12-04T17:13:33.455Z,16.00
2022-12-04T17:18:35.210Z,15.13
2022-12-04T17:23:37.494Z,18.58
2022-12-04T17:28:39.038Z,15.20
2022-12-04T17:33:40.562Z,18.27
2022-12-04T17:38:42.314Z,16.38
2022-12-04T17:43:44.272Z,17.92
2022-12-04T17:48:45.959Z,15.45
2022-12-04T17:53:48.478Z,16.10
2022-12-04T17:58:51.532Z,16.85
2022-12-04T18:03:58.308Z,20.13
2022-12-04T18:09:00.208Z,20.00
2022-12-04T18:14:11.484Z,16.13
2022-12-04T18:19:14.736Z,17.48
2022-12-04T18:24:17.393Z,17.25
2022-12-04T18:29:22.271Z,21.35
2022-12-04T18:34:24.055Z,22.73
2022-12-04T18:39:26.197Z,17.92
2022-12-04T18:44:27.722Z,19.63
2022-12-04T18:49:29.263Z,14.93
2022-12-04T18:54:30.814Z,19.02
2022-12-04T18:59:33.085Z,15.68
2022-12-04T19:04:34.638Z,14.57
2022-12-04T19:10:09.468Z,13.55
2022-12-04T19:14:57.651Z,12.45
2022-12-04T19:19:59.405Z,13.07
2022-12-04T19:25:01.541Z,11.95
2022-12-04T19:30:04.366Z,12.20
2022-12-04T19:35:06.010Z,11.35
2022-12-04T19:40:08.171Z,13.02
2022-12-04T19:45:09.946Z,10.30
2022-12-04T19:50:11.701Z,13.18
2022-12-04T19:55:13.277Z,10.30
2022-12-04T20:00:14.991Z,11.45
2022-12-04T20:05:16.455Z,11.32
2022-12-04T20:10:18.013Z,12.23
2022-12-04T20:15:19.603Z,11.43
2022-12-04T20:20:21.092Z,11.00
2022-12-04T20:25:22.769Z,13.57
2022-12-04T20:30:24.249Z,12.77
2022-12-04T20:35:25.856Z,13.10
2022-12-04T20:40:27.398Z,12.75
2022-12-04T20:45:30.291Z,13.98
2022-12-04T20:50:32.238Z,12.68
2022-12-04T20:55:33.670Z,11.57
2022-12-04T21:00:35.175Z,24.40
2022-12-04T21:05:36.672Z,14.93
2022-12-04T21:10:38.243Z,11.88
2022-12-04T21:15:58.294Z,14.23
2022-12-04T21:21:01.431Z,10.80
2022-12-04T21:26:03.119Z,12.35
2022-12-04T21:31:06.282Z,12.60
2022-12-04T21:36:09.475Z,13.30
2022-12-04T21:41:31.567Z,11.38
2022-12-04T21:46:33.074Z,11.00
2022-12-04T21:52:01.090Z,12.15
2022-12-04T21:56:56.690Z,11.02
2022-12-04T22:01:58.490Z,9.55
2022-12-04T22:06:59.973Z,10.02
2022-12-04T22:12:04.200Z,9.45
2022-12-04T22:17:16.351Z,10.70
2022-12-04T22:22:17.906Z,10.40
2022-12-04T22:27:19.368Z,9.90
2022-12-04T22:32:21.138Z,11.25
2022-12-04T22:37:24.307Z,12.10
2022-12-04T22:42:25.897Z,11.30
2022-12-04T22:47:27.388Z,11.70
2022-12-04T22:52:32.927Z,12.52
2022-12-04T22:57:34.426Z,10.77
2022-12-04T23:02:36.035Z,13.50
2022-12-04T23:07:38.626Z,10.90
2022-12-04T23:12:40.163Z,14.23
2022-12-04T23:17:41.621Z,13.20
2022-12-04T23:22:43.076Z,12.43
2022-12-04T23:27:44.498Z,13.02
2022-12-04T23:32:45.894Z,12.80
2022-12-04T23:37:47.366Z,14.75
2022-12-04T23:42:48.811Z,12.80
2022-12-04T23:47:50.312Z,11.95
2022-12-04T23:52:51.748Z,13.45
2022-12-04T23:57:53.366Z,12.48
